sensor_id;sensor_type;location;lat;lon;timestamp;temperature;humidity
75615;DHT22;64199;48.578;-4.520;2024-03-06T00:02:01;20.90;51.70
75615;DHT22;64199;48.578;-4.520;2024-03-06T00:04:28;20.90;51.70
75615;DHT22;64199;48.578;-4.520;2024-03-06T00:06:53;20.90;51.70
75615;DHT22;64199;48.578;-4.520;2024-03-06T00:09:21;20.90;51.60
75615;DHT22;64199;48.578;-4.520;2024-03-06T00:11:47;21.10;51.60
75615;DHT22;64199;48.578;-4.520;2024-03-06T00:14:12;21.00;51.50
75615;DHT22;64199;48.578;-4.520;2024-03-06T00:16:38;21.00;51.50
75615;DHT22;64199;48.578;-4.520;2024-03-06T00:19:04;21.10;51.60
75615;DHT22;64199;48.578;-4.520;2024-03-06T00:21:30;21.10;51.60
75615;DHT22;64199;48.578;-4.520;2024-03-06T00:23:56;21.10;51.50
75615;DHT22;64199;48.578;-4.520;2024-03-06T00:26:22;21.20;51.40
75615;DHT22;64199;48.578;-4.520;2024-03-06T00:28:48;21.20;51.40
75615;DHT22;64199;48.578;-4.520;2024-03-06T00:31:13;21.20;51.40
75615;DHT22;64199;48.578;-4.520;2024-03-06T00:33:40;21.20;51.20
75615;DHT22;64199;48.578;-4.520;2024-03-06T00:36:06;21.20;51.20
75615;DHT22;64199;48.578;-4.520;2024-03-06T00:38:32;21.20;51.10
75615;DHT22;64199;48.578;-4.520;2024-03-06T00:40:58;21.30;51.10
75615;DHT22;64199;48.578;-4.520;2024-03-06T00:43:24;21.30;51.00
75615;DHT22;64199;48.578;-4.520;2024-03-06T00:45:50;21.40;51.10
75615;DHT22;64199;48.578;-4.520;2024-03-06T00:48:16;21.40;51.10
75615;DHT22;64199;48.578;-4.520;2024-03-06T00:50:42;21.40;51.10
75615;DHT22;64199;48.578;-4.520;2024-03-06T00:53:07;21.40;51.10
75615;DHT22;64199;48.578;-4.520;2024-03-06T00:55:33;21.40;51.00
75615;DHT22;64199;48.578;-4.520;2024-03-06T00:57:59;21.50;51.00
75615;DHT22;64199;48.578;-4.520;2024-03-06T01:00:25;21.50;51.00
75615;DHT22;64199;48.578;-4.520;2024-03-06T01:02:51;21.50;50.90
75615;DHT22;64199;48.578;-4.520;2024-03-06T01:05:16;21.50;50.80
75615;DHT22;64199;48.578;-4.520;2024-03-06T01:07:42;21.50;50.80
75615;DHT22;64199;48.578;-4.520;2024-03-06T01:10:08;21.60;50.80
75615;DHT22;64199;48.578;-4.520;2024-03-06T01:12:35;21.60;50.70
75615;DHT22;64199;48.578;-4.520;2024-03-06T01:15:01;21.60;50.70
75615;DHT22;64199;48.578;-4.520;2024-03-06T01:17:27;21.60;50.70
75615;DHT22;64199;48.578;-4.520;2024-03-06T01:19:53;21.60;50.60
75615;DHT22;64199;48.578;-4.520;2024-03-06T01:22:18;21.60;50.50
75615;DHT22;64199;48.578;-4.520;2024-03-06T01:24:44;21.70;50.50
75615;DHT22;64199;48.578;-4.520;2024-03-06T01:27:10;21.70;51.10
75615;DHT22;64199;48.578;-4.520;2024-03-06T01:29:36;21.70;50.50
75615;DHT22;64199;48.578;-4.520;2024-03-06T01:32:03;21.70;50.60
75615;DHT22;64199;48.578;-4.520;2024-03-06T01:34:29;21.70;50.60
75615;DHT22;64199;48.578;-4.520;2024-03-06T01:36:55;21.70;50.60
75615;DHT22;64199;48.578;-4.520;2024-03-06T01:39:21;21.80;50.70
75615;DHT22;64199;48.578;-4.520;2024-03-06T01:41:50;21.70;50.60
75615;DHT22;64199;48.578;-4.520;2024-03-06T01:44:17;21.80;50.70
75615;DHT22;64199;48.578;-4.520;2024-03-06T01:46:44;21.80;50.60
75615;DHT22;64199;48.578;-4.520;2024-03-06T01:49:11;21.80;50.60
75615;DHT22;64199;48.578;-4.520;2024-03-06T01:51:43;21.80;50.60
75615;DHT22;64199;48.578;-4.520;2024-03-06T01:54:10;21.80;50.50
75615;DHT22;64199;48.578;-4.520;2024-03-06T01:56:38;21.80;50.50
75615;DHT22;64199;48.578;-4.520;2024-03-06T01:59:05;21.80;50.40
75615;DHT22;64199;48.578;-4.520;2024-03-06T02:01:32;21.80;50.40
75615;DHT22;64199;48.578;-4.520;2024-03-06T02:03:59;21.90;50.40
75615;DHT22;64199;48.578;-4.520;2024-03-06T02:06:25;21.90;50.30
75615;DHT22;64199;48.578;-4.520;2024-03-06T02:08:51;21.90;50.30
75615;DHT22;64199;48.578;-4.520;2024-03-06T02:11:17;21.90;50.30
75615;DHT22;64199;48.578;-4.520;2024-03-06T02:13:43;21.90;50.20
75615;DHT22;64199;48.578;-4.520;2024-03-06T02:16:10;21.90;50.20
75615;DHT22;64199;48.578;-4.520;2024-03-06T02:18:37;22.00;50.20
75615;DHT22;64199;48.578;-4.520;2024-03-06T02:21:05;22.00;50.20
75615;DHT22;64199;48.578;-4.520;2024-03-06T02:23:33;22.00;50.20
75615;DHT22;64199;48.578;-4.520;2024-03-06T02:25:58;22.00;50.10
75615;DHT22;64199;48.578;-4.520;2024-03-06T02:28:24;22.00;50.10
75615;DHT22;64199;48.578;-4.520;2024-03-06T02:30:50;22.00;50.10
75615;DHT22;64199;48.578;-4.520;2024-03-06T02:33:16;22.00;50.10
75615;DHT22;64199;48.578;-4.520;2024-03-06T02:35:43;22.00;50.00
75615;DHT22;64199;48.578;-4.520;2024-03-06T02:38:11;22.00;50.00
75615;DHT22;64199;48.578;-4.520;2024-03-06T02:40:37;22.10;50.10
75615;DHT22;64199;48.578;-4.520;2024-03-06T02:43:03;22.10;50.10
75615;DHT22;64199;48.578;-4.520;2024-03-06T02:45:30;22.10;50.10
75615;DHT22;64199;48.578;-4.520;2024-03-06T02:47:56;22.20;50.10
75615;DHT22;64199;48.578;-4.520;2024-03-06T02:50:22;22.10;50.00
75615;DHT22;64199;48.578;-4.520;2024-03-06T02:52:48;22.10;50.00
75615;DHT22;64199;48.578;-4.520;2024-03-06T02:55:14;22.20;50.20
75615;DHT22;64199;48.578;-4.520;2024-03-06T02:57:40;22.20;50.20
75615;DHT22;64199;48.578;-4.520;2024-03-06T03:00:07;22.20;50.10
75615;DHT22;64199;48.578;-4.520;2024-03-06T03:02:39;22.20;50.10
75615;DHT22;64199;48.578;-4.520;2024-03-06T03:05:05;22.20;50.10
75615;DHT22;64199;48.578;-4.520;2024-03-06T03:07:31;22.20;50.10
75615;DHT22;64199;48.578;-4.520;2024-03-06T03:09:57;22.20;50.10
75615;DHT22;64199;48.578;-4.520;2024-03-06T03:12:23;22.20;50.10
75615;DHT22;64199;48.578;-4.520;2024-03-06T03:14:49;22.30;50.20
75615;DHT22;64199;48.578;-4.520;2024-03-06T03:17:15;22.30;50.20
75615;DHT22;64199;48.578;-4.520;2024-03-06T03:19:41;22.30;50.10
75615;DHT22;64199;48.578;-4.520;2024-03-06T03:22:07;22.30;50.10
75615;DHT22;64199;48.578;-4.520;2024-03-06T03:24:34;22.30;50.00
75615;DHT22;64199;48.578;-4.520;2024-03-06T03:27:01;22.30;50.00
75615;DHT22;64199;48.578;-4.520;2024-03-06T03:29:27;22.30;50.00
75615;DHT22;64199;48.578;-4.520;2024-03-06T03:31:52;22.30;50.10
75615;DHT22;64199;48.578;-4.520;2024-03-06T03:34:18;22.40;50.10
75615;DHT22;64199;48.578;-4.520;2024-03-06T03:36:46;22.40;50.20
75615;DHT22;64199;48.578;-4.520;2024-03-06T03:39:14;22.40;50.20
75615;DHT22;64199;48.578;-4.520;2024-03-06T03:41:47;22.40;50.20
75615;DHT22;64199;48.578;-4.520;2024-03-06T03:44:14;22.40;50.20
75615;DHT22;64199;48.578;-4.520;2024-03-06T03:46:40;22.40;50.10
75615;DHT22;64199;48.578;-4.520;2024-03-06T03:49:06;22.40;50.10
75615;DHT22;64199;48.578;-4.520;2024-03-06T03:51:32;22.30;50.10
75615;DHT22;64199;48.578;-4.520;2024-03-06T03:53:58;22.30;49.90
75615;DHT22;64199;48.578;-4.520;2024-03-06T03:56:23;22.30;49.80
75615;DHT22;64199;48.578;-4.520;2024-03-06T03:58:49;22.30;49.70
75615;DHT22;64199;48.578;-4.520;2024-03-06T04:01:15;22.30;49.70
75615;DHT22;64199;48.578;-4.520;2024-03-06T04:03:41;22.20;49.70
75615;DHT22;64199;48.578;-4.520;2024-03-06T04:06:08;22.20;49.60
75615;DHT22;64199;48.578;-4.520;2024-03-06T04:08:34;22.20;49.60
75615;DHT22;64199;48.578;-4.520;2024-03-06T04:11:00;22.20;49.60
75615;DHT22;64199;48.578;-4.520;2024-03-06T04:13:26;22.10;49.50
75615;DHT22;64199;48.578;-4.520;2024-03-06T04:15:52;22.00;49.50
75615;DHT22;64199;48.578;-4.520;2024-03-06T04:18:18;22.00;49.60
75615;DHT22;64199;48.578;-4.520;2024-03-06T04:20:44;22.00;49.60
75615;DHT22;64199;48.578;-4.520;2024-03-06T04:23:10;21.90;49.50
75615;DHT22;64199;48.578;-4.520;2024-03-06T04:25:36;21.90;49.60
75615;DHT22;64199;48.578;-4.520;2024-03-06T04:28:02;21.90;49.70
75615;DHT22;64199;48.578;-4.520;2024-03-06T04:30:28;21.90;49.90
75615;DHT22;64199;48.578;-4.520;2024-03-06T04:32:54;21.80;49.90
75615;DHT22;64199;48.578;-4.520;2024-03-06T04:35:20;21.80;50.00
75615;DHT22;64199;48.578;-4.520;2024-03-06T04:37:46;21.70;49.90
75615;DHT22;64199;48.578;-4.520;2024-03-06T04:40:12;21.70;49.90
75615;DHT22;64199;48.578;-4.520;2024-03-06T04:42:40;21.60;49.90
75615;DHT22;64199;48.578;-4.520;2024-03-06T04:45:15;21.60;49.90
75615;DHT22;64199;48.578;-4.520;2024-03-06T04:47:41;21.60;49.90
75615;DHT22;64199;48.578;-4.520;2024-03-06T04:50:11;21.60;50.00
75615;DHT22;64199;48.578;-4.520;2024-03-06T04:52:40;21.50;49.90
75615;DHT22;64199;48.578;-4.520;2024-03-06T04:55:07;21.50;49.90
75615;DHT22;64199;48.578;-4.520;2024-03-06T04:57:37;21.50;50.00
75615;DHT22;64199;48.578;-4.520;2024-03-06T05:00:03;21.40;49.90
75615;DHT22;64199;48.578;-4.520;2024-03-06T05:02:35;21.40;49.90
75615;DHT22;64199;48.578;-4.520;2024-03-06T05:05:03;21.40;49.90
75615;DHT22;64199;48.578;-4.520;2024-03-06T05:07:29;21.30;49.90
75615;DHT22;64199;48.578;-4.520;2024-03-06T05:09:56;21.30;49.90
75615;DHT22;64199;48.578;-4.520;2024-03-06T05:12:25;21.20;49.90
75615;DHT22;64199;48.578;-4.520;2024-03-06T05:14:52;21.20;49.90
75615;DHT22;64199;48.578;-4.520;2024-03-06T05:17:18;21.20;49.80
75615;DHT22;64199;48.578;-4.520;2024-03-06T05:19:46;21.10;49.80
75615;DHT22;64199;48.578;-4.520;2024-03-06T05:22:13;21.10;49.90
75615;DHT22;64199;48.578;-4.520;2024-03-06T05:24:40;21.10;49.90
75615;DHT22;64199;48.578;-4.520;2024-03-06T05:27:06;21.00;49.90
75615;DHT22;64199;48.578;-4.520;2024-03-06T05:29:32;21.00;50.00
75615;DHT22;64199;48.578;-4.520;2024-03-06T05:31:58;21.00;50.10
75615;DHT22;64199;48.578;-4.520;2024-03-06T05:34:24;21.00;50.10
75615;DHT22;64199;48.578;-4.520;2024-03-06T05:36:50;20.90;50.10
75615;DHT22;64199;48.578;-4.520;2024-03-06T05:39:16;20.90;50.20
75615;DHT22;64199;48.578;-4.520;2024-03-06T05:41:43;20.90;50.40
75615;DHT22;64199;48.578;-4.520;2024-03-06T05:44:09;20.80;50.40
75615;DHT22;64199;48.578;-4.520;2024-03-06T05:46:35;20.80;50.40
75615;DHT22;64199;48.578;-4.520;2024-03-06T05:49:02;20.80;50.40
75615;DHT22;64199;48.578;-4.520;2024-03-06T05:51:28;20.80;50.30
75615;DHT22;64199;48.578;-4.520;2024-03-06T05:53:54;20.70;50.30
75615;DHT22;64199;48.578;-4.520;2024-03-06T05:56:21;20.70;50.30
75615;DHT22;64199;48.578;-4.520;2024-03-06T05:58:47;20.70;50.30
75615;DHT22;64199;48.578;-4.520;2024-03-06T06:01:18;20.70;50.30
75615;DHT22;64199;48.578;-4.520;2024-03-06T06:03:49;20.60;50.30
75615;DHT22;64199;48.578;-4.520;2024-03-06T06:06:16;20.60;50.40
75615;DHT22;64199;48.578;-4.520;2024-03-06T06:08:42;20.60;50.40
75615;DHT22;64199;48.578;-4.520;2024-03-06T06:11:10;20.50;50.40
75615;DHT22;64199;48.578;-4.520;2024-03-06T06:13:35;20.60;50.50
75615;DHT22;64199;48.578;-4.520;2024-03-06T06:16:01;20.50;50.50
75615;DHT22;64199;48.578;-4.520;2024-03-06T06:18:28;20.50;50.50
75615;DHT22;64199;48.578;-4.520;2024-03-06T06:20:54;20.50;50.60
75615;DHT22;64199;48.578;-4.520;2024-03-06T06:23:20;20.40;50.60
75615;DHT22;64199;48.578;-4.520;2024-03-06T06:25:45;20.40;50.60
75615;DHT22;64199;48.578;-4.520;2024-03-06T06:28:11;20.40;50.70
75615;DHT22;64199;48.578;-4.520;2024-03-06T06:30:37;20.40;50.70
75615;DHT22;64199;48.578;-4.520;2024-03-06T06:33:04;20.40;50.70
75615;DHT22;64199;48.578;-4.520;2024-03-06T06:35:30;20.40;50.70
75615;DHT22;64199;48.578;-4.520;2024-03-06T06:37:56;20.30;50.60
75615;DHT22;64199;48.578;-4.520;2024-03-06T06:40:22;20.30;50.60
75615;DHT22;64199;48.578;-4.520;2024-03-06T06:42:48;20.30;50.60
75615;DHT22;64199;48.578;-4.520;2024-03-06T06:45:18;20.20;50.60
75615;DHT22;64199;48.578;-4.520;2024-03-06T06:47:44;20.20;50.60
75615;DHT22;64199;48.578;-4.520;2024-03-06T06:50:10;20.20;50.90
75615;DHT22;64199;48.578;-4.520;2024-03-06T06:52:38;20.20;51.00
75615;DHT22;64199;48.578;-4.520;2024-03-06T06:55:04;20.20;51.00
75615;DHT22;64199;48.578;-4.520;2024-03-06T06:57:31;20.10;50.90
75615;DHT22;64199;48.578;-4.520;2024-03-06T06:59:58;20.10;50.90
75615;DHT22;64199;48.578;-4.520;2024-03-06T07:02:26;20.10;50.90
75615;DHT22;64199;48.578;-4.520;2024-03-06T07:04:53;20.10;51.00
75615;DHT22;64199;48.578;-4.520;2024-03-06T07:07:19;20.10;51.00
75615;DHT22;64199;48.578;-4.520;2024-03-06T07:09:45;20.10;50.90
75615;DHT22;64199;48.578;-4.520;2024-03-06T07:12:10;20.10;51.00
75615;DHT22;64199;48.578;-4.520;2024-03-06T07:14:36;20.10;50.90
75615;DHT22;64199;48.578;-4.520;2024-03-06T07:17:02;20.10;50.90
75615;DHT22;64199;48.578;-4.520;2024-03-06T07:19:28;20.10;50.90
75615;DHT22;64199;48.578;-4.520;2024-03-06T07:21:54;20.20;50.90
75615;DHT22;64199;48.578;-4.520;2024-03-06T07:24:20;20.20;50.90
75615;DHT22;64199;48.578;-4.520;2024-03-06T07:26:46;20.20;50.90
75615;DHT22;64199;48.578;-4.520;2024-03-06T07:29:12;20.20;50.90
75615;DHT22;64199;48.578;-4.520;2024-03-06T07:31:41;20.20;50.90
75615;DHT22;64199;48.578;-4.520;2024-03-06T07:34:08;20.20;51.40
75615;DHT22;64199;48.578;-4.520;2024-03-06T07:36:34;20.20;50.80
75615;DHT22;64199;48.578;-4.520;2024-03-06T07:39:01;20.30;51.00
75615;DHT22;64199;48.578;-4.520;2024-03-06T07:41:28;20.30;50.90
75615;DHT22;64199;48.578;-4.520;2024-03-06T07:43:54;20.30;50.80
75615;DHT22;64199;48.578;-4.520;2024-03-06T07:46:19;20.30;50.80
75615;DHT22;64199;48.578;-4.520;2024-03-06T07:48:45;20.40;50.80
75615;DHT22;64199;48.578;-4.520;2024-03-06T07:51:11;20.40;50.80
75615;DHT22;64199;48.578;-4.520;2024-03-06T07:53:37;20.40;51.00
75615;DHT22;64199;48.578;-4.520;2024-03-06T07:56:04;20.40;51.20
75615;DHT22;64199;48.578;-4.520;2024-03-06T07:58:30;20.40;51.50
75615;DHT22;64199;48.578;-4.520;2024-03-06T08:00:56;20.50;51.50
75615;DHT22;64199;48.578;-4.520;2024-03-06T08:03:23;20.50;51.50
75615;DHT22;64199;48.578;-4.520;2024-03-06T08:05:52;20.50;51.50
75615;DHT22;64199;48.578;-4.520;2024-03-06T08:08:19;20.50;51.50
75615;DHT22;64199;48.578;-4.520;2024-03-06T08:10:45;20.60;51.50
75615;DHT22;64199;48.578;-4.520;2024-03-06T08:13:11;20.50;51.40
75615;DHT22;64199;48.578;-4.520;2024-03-06T08:15:37;20.60;51.40
75615;DHT22;64199;48.578;-4.520;2024-03-06T08:18:03;20.60;51.40
75615;DHT22;64199;48.578;-4.520;2024-03-06T08:20:32;20.60;51.30
75615;DHT22;64199;48.578;-4.520;2024-03-06T08:22:58;20.60;51.30
75615;DHT22;64199;48.578;-4.520;2024-03-06T08:25:24;20.60;51.30
75615;DHT22;64199;48.578;-4.520;2024-03-06T08:27:50;20.60;51.20
75615;DHT22;64199;48.578;-4.520;2024-03-06T08:30:16;20.70;51.20
75615;DHT22;64199;48.578;-4.520;2024-03-06T08:32:42;20.70;51.20
75615;DHT22;64199;48.578;-4.520;2024-03-06T08:35:11;20.70;51.20
75615;DHT22;64199;48.578;-4.520;2024-03-06T08:37:38;20.80;51.20
75615;DHT22;64199;48.578;-4.520;2024-03-06T08:40:06;20.70;51.10
75615;DHT22;64199;48.578;-4.520;2024-03-06T08:42:41;20.80;51.20
75615;DHT22;64199;48.578;-4.520;2024-03-06T08:45:08;20.80;51.10
75615;DHT22;64199;48.578;-4.520;2024-03-06T08:47:34;20.80;51.10
75615;DHT22;64199;48.578;-4.520;2024-03-06T08:50:01;20.80;51.10
75615;DHT22;64199;48.578;-4.520;2024-03-06T08:52:28;20.80;51.10
75615;DHT22;64199;48.578;-4.520;2024-03-06T08:54:54;20.90;51.10
75615;DHT22;64199;48.578;-4.520;2024-03-06T08:57:20;20.90;51.00
75615;DHT22;64199;48.578;-4.520;2024-03-06T08:59:47;20.90;51.00
75615;DHT22;64199;48.578;-4.520;2024-03-06T09:02:14;20.90;51.00
75615;DHT22;64199;48.578;-4.520;2024-03-06T09:04:44;21.00;51.00
75615;DHT22;64199;48.578;-4.520;2024-03-06T09:07:10;21.00;51.00
75615;DHT22;64199;48.578;-4.520;2024-03-06T09:09:37;21.00;51.00
75615;DHT22;64199;48.578;-4.520;2024-03-06T09:12:07;21.00;50.90
75615;DHT22;64199;48.578;-4.520;2024-03-06T09:14:36;21.00;51.00
75615;DHT22;64199;48.578;-4.520;2024-03-06T09:17:03;21.00;50.90
75615;DHT22;64199;48.578;-4.520;2024-03-06T09:19:30;21.10;50.90
75615;DHT22;64199;48.578;-4.520;2024-03-06T09:21:56;21.10;50.90
75615;DHT22;64199;48.578;-4.520;2024-03-06T09:24:23;21.10;50.90
75615;DHT22;64199;48.578;-4.520;2024-03-06T09:26:51;21.10;50.80
75615;DHT22;64199;48.578;-4.520;2024-03-06T09:29:17;21.10;50.80
75615;DHT22;64199;48.578;-4.520;2024-03-06T09:31:43;21.20;50.80
75615;DHT22;64199;48.578;-4.520;2024-03-06T09:34:09;21.20;50.80
75615;DHT22;64199;48.578;-4.520;2024-03-06T09:36:40;21.20;50.80
75615;DHT22;64199;48.578;-4.520;2024-03-06T09:39:14;21.20;50.80
75615;DHT22;64199;48.578;-4.520;2024-03-06T09:41:44;21.20;50.80
75615;DHT22;64199;48.578;-4.520;2024-03-06T09:44:10;21.20;50.70
75615;DHT22;64199;48.578;-4.520;2024-03-06T09:46:37;21.30;50.80
75615;DHT22;64199;48.578;-4.520;2024-03-06T09:49:03;21.30;50.70
75615;DHT22;64199;48.578;-4.520;2024-03-06T09:51:30;21.30;50.70
75615;DHT22;64199;48.578;-4.520;2024-03-06T09:53:56;21.30;50.70
75615;DHT22;64199;48.578;-4.520;2024-03-06T09:56:22;21.30;50.60
75615;DHT22;64199;48.578;-4.520;2024-03-06T09:58:48;21.40;50.60
75615;DHT22;64199;48.578;-4.520;2024-03-06T10:01:14;21.40;50.60
75615;DHT22;64199;48.578;-4.520;2024-03-06T10:03:40;21.40;50.60
75615;DHT22;64199;48.578;-4.520;2024-03-06T10:06:09;21.40;50.50
75615;DHT22;64199;48.578;-4.520;2024-03-06T10:08:35;21.40;50.50
75615;DHT22;64199;48.578;-4.520;2024-03-06T10:11:03;21.40;50.50
75615;DHT22;64199;48.578;-4.520;2024-03-06T10:13:30;21.40;50.50
75615;DHT22;64199;48.578;-4.520;2024-03-06T10:18:22;21.50;50.50
75615;DHT22;64199;48.578;-4.520;2024-03-06T10:20:51;21.50;50.40
75615;DHT22;64199;48.578;-4.520;2024-03-06T10:23:18;21.50;50.40
75615;DHT22;64199;48.578;-4.520;2024-03-06T10:25:44;21.60;50.40
75615;DHT22;64199;48.578;-4.520;2024-03-06T10:28:13;21.60;50.40
75615;DHT22;64199;48.578;-4.520;2024-03-06T10:30:41;21.60;50.40
75615;DHT22;64199;48.578;-4.520;2024-03-06T10:33:08;21.60;50.30
75615;DHT22;64199;48.578;-4.520;2024-03-06T10:35:35;21.60;50.30
75615;DHT22;64199;48.578;-4.520;2024-03-06T10:38:05;21.60;50.30
75615;DHT22;64199;48.578;-4.520;2024-03-06T10:40:36;21.60;50.20
75615;DHT22;64199;48.578;-4.520;2024-03-06T10:43:03;21.70;50.20
75615;DHT22;64199;48.578;-4.520;2024-03-06T10:45:40;21.70;50.20
75615;DHT22;64199;48.578;-4.520;2024-03-06T10:48:08;21.70;50.20
75615;DHT22;64199;48.578;-4.520;2024-03-06T10:50:39;21.70;50.20
75615;DHT22;64199;48.578;-4.520;2024-03-06T10:53:09;21.70;50.20
75615;DHT22;64199;48.578;-4.520;2024-03-06T10:55:39;21.70;50.10
75615;DHT22;64199;48.578;-4.520;2024-03-06T10:58:08;21.80;50.20
75615;DHT22;64199;48.578;-4.520;2024-03-06T11:00:42;21.80;50.20
75615;DHT22;64199;48.578;-4.520;2024-03-06T11:03:09;21.80;50.10
75615;DHT22;64199;48.578;-4.520;2024-03-06T11:05:41;21.80;50.10
75615;DHT22;64199;48.578;-4.520;2024-03-06T11:08:14;21.80;50.10
75615;DHT22;64199;48.578;-4.520;2024-03-06T11:10:42;21.80;50.00
75615;DHT22;64199;48.578;-4.520;2024-03-06T11:15:46;21.90;50.00
75615;DHT22;64199;48.578;-4.520;2024-03-06T11:23:31;21.90;49.90
75615;DHT22;64199;48.578;-4.520;2024-03-06T11:28:36;22.00;50.00
75615;DHT22;64199;48.578;-4.520;2024-03-06T11:31:08;22.00;50.00
75615;DHT22;64199;48.578;-4.520;2024-03-06T11:33:54;22.00;50.00
75615;DHT22;64199;48.578;-4.520;2024-03-06T11:36:27;22.00;49.90
75615;DHT22;64199;48.578;-4.520;2024-03-06T11:39:06;22.00;49.80
75615;DHT22;64199;48.578;-4.520;2024-03-06T11:44:16;22.10;49.90
75615;DHT22;64199;48.578;-4.520;2024-03-06T11:46:50;22.10;49.80
75615;DHT22;64199;48.578;-4.520;2024-03-06T11:49:28;22.10;49.80
75615;DHT22;64199;48.578;-4.520;2024-03-06T11:51:56;22.10;49.90
75615;DHT22;64199;48.578;-4.520;2024-03-06T11:54:25;22.10;49.80
75615;DHT22;64199;48.578;-4.520;2024-03-06T11:56:54;22.20;49.80
75615;DHT22;64199;48.578;-4.520;2024-03-06T11:59:34;22.20;49.70
75615;DHT22;64199;48.578;-4.520;2024-03-06T12:02:03;22.20;49.70
75615;DHT22;64199;48.578;-4.520;2024-03-06T12:04:34;22.20;49.70
75615;DHT22;64199;48.578;-4.520;2024-03-06T12:07:01;22.20;49.70
75615;DHT22;64199;48.578;-4.520;2024-03-06T12:09:36;22.30;49.70
75615;DHT22;64199;48.578;-4.520;2024-03-06T12:12:02;22.20;49.60
75615;DHT22;64199;48.578;-4.520;2024-03-06T12:14:29;22.30;49.60
75615;DHT22;64199;48.578;-4.520;2024-03-06T12:17:00;22.30;49.60
75615;DHT22;64199;48.578;-4.520;2024-03-06T12:19:33;22.30;49.60
75615;DHT22;64199;48.578;-4.520;2024-03-06T12:22:03;22.30;49.50
75615;DHT22;64199;48.578;-4.520;2024-03-06T12:24:30;22.30;49.50
75615;DHT22;64199;48.578;-4.520;2024-03-06T12:27:04;22.40;49.50
75615;DHT22;64199;48.578;-4.520;2024-03-06T12:29:31;22.30;49.50
75615;DHT22;64199;48.578;-4.520;2024-03-06T12:31:58;22.40;49.40
75615;DHT22;64199;48.578;-4.520;2024-03-06T12:34:24;22.40;49.40
75615;DHT22;64199;48.578;-4.520;2024-03-06T12:36:50;22.40;49.40
75615;DHT22;64199;48.578;-4.520;2024-03-06T12:39:17;22.50;49.40
75615;DHT22;64199;48.578;-4.520;2024-03-06T12:41:51;22.40;49.40
75615;DHT22;64199;48.578;-4.520;2024-03-06T12:44:19;22.50;49.40
75615;DHT22;64199;48.578;-4.520;2024-03-06T12:46:45;22.50;49.30
75615;DHT22;64199;48.578;-4.520;2024-03-06T12:49:11;22.50;49.30
75615;DHT22;64199;48.578;-4.520;2024-03-06T12:51:37;22.50;49.30
75615;DHT22;64199;48.578;-4.520;2024-03-06T12:54:02;22.60;49.30
75615;DHT22;64199;48.578;-4.520;2024-03-06T12:56:29;22.60;49.30
75615;DHT22;64199;48.578;-4.520;2024-03-06T12:58:55;22.60;49.20
75615;DHT22;64199;48.578;-4.520;2024-03-06T13:01:21;22.60;49.20
75615;DHT22;64199;48.578;-4.520;2024-03-06T13:03:47;22.60;49.20
75615;DHT22;64199;48.578;-4.520;2024-03-06T13:06:12;22.70;49.30
75615;DHT22;64199;48.578;-4.520;2024-03-06T13:08:38;22.70;49.30
75615;DHT22;64199;48.578;-4.520;2024-03-06T13:11:04;22.70;49.20
75615;DHT22;64199;48.578;-4.520;2024-03-06T13:13:30;22.70;49.20
75615;DHT22;64199;48.578;-4.520;2024-03-06T13:15:58;22.60;49.10
75615;DHT22;64199;48.578;-4.520;2024-03-06T13:18:24;22.70;49.10
75615;DHT22;64199;48.578;-4.520;2024-03-06T13:20:51;22.70;49.10
75615;DHT22;64199;48.578;-4.520;2024-03-06T13:23:17;22.70;49.00
75615;DHT22;64199;48.578;-4.520;2024-03-06T13:25:43;22.60;48.80
75615;DHT22;64199;48.578;-4.520;2024-03-06T13:28:11;22.60;48.70
75615;DHT22;64199;48.578;-4.520;2024-03-06T13:30:37;22.60;48.70
75615;DHT22;64199;48.578;-4.520;2024-03-06T13:33:05;22.60;48.70
75615;DHT22;64199;48.578;-4.520;2024-03-06T13:35:31;22.60;48.70
75615;DHT22;64199;48.578;-4.520;2024-03-06T13:37:57;22.50;48.60
75615;DHT22;64199;48.578;-4.520;2024-03-06T13:40:23;22.50;48.50
75615;DHT22;64199;48.578;-4.520;2024-03-06T13:42:51;22.40;48.40
75615;DHT22;64199;48.578;-4.520;2024-03-06T13:45:17;22.40;48.40
75615;DHT22;64199;48.578;-4.520;2024-03-06T13:47:44;22.30;48.30
75615;DHT22;64199;48.578;-4.520;2024-03-06T13:50:19;22.30;48.30
75615;DHT22;64199;48.578;-4.520;2024-03-06T13:52:45;22.30;48.20
75615;DHT22;64199;48.578;-4.520;2024-03-06T13:55:10;22.30;48.20
75615;DHT22;64199;48.578;-4.520;2024-03-06T13:57:37;22.30;48.20
75615;DHT22;64199;48.578;-4.520;2024-03-06T14:00:05;22.20;48.20
75615;DHT22;64199;48.578;-4.520;2024-03-06T14:02:32;22.20;48.20
75615;DHT22;64199;48.578;-4.520;2024-03-06T14:04:58;22.20;48.20
75615;DHT22;64199;48.578;-4.520;2024-03-06T14:07:25;22.20;48.20
75615;DHT22;64199;48.578;-4.520;2024-03-06T14:09:51;22.10;48.20
75615;DHT22;64199;48.578;-4.520;2024-03-06T14:12:17;22.10;48.10
75615;DHT22;64199;48.578;-4.520;2024-03-06T14:14:43;22.10;48.10
75615;DHT22;64199;48.578;-4.520;2024-03-06T14:17:11;22.00;48.10
75615;DHT22;64199;48.578;-4.520;2024-03-06T14:19:38;22.00;48.20
75615;DHT22;64199;48.578;-4.520;2024-03-06T14:22:08;22.00;48.10
75615;DHT22;64199;48.578;-4.520;2024-03-06T14:24:35;22.00;48.10
75615;DHT22;64199;48.578;-4.520;2024-03-06T14:27:02;21.90;48.10
75615;DHT22;64199;48.578;-4.520;2024-03-06T14:29:29;21.90;48.00
75615;DHT22;64199;48.578;-4.520;2024-03-06T14:31:55;21.90;48.10
75615;DHT22;64199;48.578;-4.520;2024-03-06T14:34:21;21.90;48.10
75615;DHT22;64199;48.578;-4.520;2024-03-06T14:36:50;21.90;48.20
75615;DHT22;64199;48.578;-4.520;2024-03-06T14:39:17;21.90;48.10
75615;DHT22;64199;48.578;-4.520;2024-03-06T14:41:43;21.80;48.10
75615;DHT22;64199;48.578;-4.520;2024-03-06T14:44:10;21.80;48.10
75615;DHT22;64199;48.578;-4.520;2024-03-06T14:46:36;21.80;48.10
75615;DHT22;64199;48.578;-4.520;2024-03-06T14:49:02;21.80;48.00
75615;DHT22;64199;48.578;-4.520;2024-03-06T14:51:28;21.80;48.00
75615;DHT22;64199;48.578;-4.520;2024-03-06T14:53:54;21.80;48.00
75615;DHT22;64199;48.578;-4.520;2024-03-06T14:56:20;21.70;48.00
75615;DHT22;64199;48.578;-4.520;2024-03-06T14:58:47;21.70;48.00
75615;DHT22;64199;48.578;-4.520;2024-03-06T15:01:13;21.70;48.00
75615;DHT22;64199;48.578;-4.520;2024-03-06T15:03:39;21.70;48.10
75615;DHT22;64199;48.578;-4.520;2024-03-06T15:06:06;21.70;48.10
75615;DHT22;64199;48.578;-4.520;2024-03-06T15:08:36;21.70;48.10
75615;DHT22;64199;48.578;-4.520;2024-03-06T15:11:02;21.70;48.20
75615;DHT22;64199;48.578;-4.520;2024-03-06T15:13:28;21.60;48.20
75615;DHT22;64199;48.578;-4.520;2024-03-06T15:15:54;21.60;48.20
75615;DHT22;64199;48.578;-4.520;2024-03-06T15:18:20;21.60;48.20
75615;DHT22;64199;48.578;-4.520;2024-03-06T15:20:46;21.50;48.30
75615;DHT22;64199;48.578;-4.520;2024-03-06T15:23:12;21.50;48.30
75615;DHT22;64199;48.578;-4.520;2024-03-06T15:25:38;21.50;48.30
75615;DHT22;64199;48.578;-4.520;2024-03-06T15:28:04;21.50;48.30
75615;DHT22;64199;48.578;-4.520;2024-03-06T15:30:30;21.40;48.80